createdAt,value
2022-09-30T00:02:59.311Z,9.26
2022-09-30T00:06:09.378Z,9.23
2022-09-30T00:09:15.971Z,9.22
2022-09-30T00:12:22.635Z,9.27
2022-09-30T00:15:29.395Z,9.30
2022-09-30T00:18:35.989Z,9.28
2022-09-30T00:21:44.087Z,9.26
2022-09-30T00:24:51.439Z,9.27
2022-09-30T00:27:57.710Z,9.28
2022-09-30T00:31:06.283Z,9.31
2022-09-30T00:34:12.812Z,9.32
2022-09-30T00:37:21.003Z,9.34
2022-09-30T00:40:31.008Z,9.37
2022-09-30T00:43:46.572Z,9.35
2022-09-30T00:46:52.906Z,9.38
2022-09-30T00:50:03.374Z,9.41
2022-09-30T00:53:17.236Z,9.44
2022-09-30T00:56:27.212Z,9.44
2022-09-30T00:59:39.029Z,9.43
2022-09-30T01:02:45.415Z,9.39
2022-09-30T01:05:52.855Z,9.37
2022-09-30T01:09:01.021Z,9.39
2022-09-30T01:12:09.869Z,9.46
2022-09-30T01:15:16.899Z,9.46
2022-09-30T01:18:34.327Z,9.50
2022-09-30T01:22:06.480Z,9.55
2022-09-30T01:25:41.623Z,9.54
2022-09-30T01:29:15.434Z,9.54
2022-09-30T01:32:36.919Z,9.56
2022-09-30T01:36:11.109Z,9.57
2022-09-30T01:39:30.676Z,9.60
2022-09-30T01:42:47.479Z,9.54
2022-09-30T01:46:01.184Z,9.46
2022-09-30T01:49:18.214Z,9.43
2022-09-30T01:52:29.197Z,9.43
2022-09-30T01:55:40.496Z,9.43
2022-09-30T01:58:53.615Z,9.39
2022-09-30T02:02:05.538Z,9.39
2022-09-30T02:05:20.668Z,9.41
2022-09-30T02:08:32.418Z,9.44
2022-09-30T02:11:41.495Z,9.41
2022-09-30T02:14:51.802Z,9.43
2022-09-30T02:18:02.545Z,9.42
2022-09-30T02:21:14.082Z,9.43
2022-09-30T02:24:26.331Z,9.40
2022-09-30T02:27:44.649Z,9.41
2022-09-30T02:30:54.869Z,9.41
2022-09-30T02:34:08.953Z,9.41
2022-09-30T02:37:23.059Z,9.40
2022-09-30T02:40:34.183Z,9.35
2022-09-30T02:43:43.128Z,9.32
2022-09-30T02:46:56.671Z,9.28
2022-09-30T02:50:07.871Z,9.23
2022-09-30T02:53:30.698Z,9.19
2022-09-30T02:56:51.625Z,9.10
2022-09-30T02:59:57.732Z,9.05
2022-09-30T03:03:08.753Z,9.01
2022-09-30T03:06:15.720Z,8.97
2022-09-30T03:09:28.138Z,8.90
2022-09-30T03:12:44.996Z,8.88
2022-09-30T03:16:01.399Z,8.86
2022-09-30T03:19:25.617Z,8.81
2022-09-30T03:23:01.898Z,8.91
2022-09-30T03:26:21.343Z,8.93
2022-09-30T03:29:37.181Z,8.89
2022-09-30T03:32:59.481Z,8.89
2022-09-30T03:36:11.871Z,8.91
2022-09-30T03:39:27.295Z,8.87
2022-09-30T03:42:42.230Z,8.88
2022-09-30T03:45:53.550Z,8.89
2022-09-30T03:49:03.595Z,8.89
2022-09-30T03:52:17.237Z,8.87
2022-09-30T03:55:25.679Z,8.86
2022-09-30T03:58:35.201Z,8.86
2022-09-30T04:01:42.476Z,8.81
2022-09-30T04:04:48.644Z,8.84
2022-09-30T04:07:55.639Z,8.90
2022-09-30T04:11:03.086Z,8.90
2022-09-30T04:14:10.937Z,8.87
2022-09-30T04:17:22.156Z,8.88
2022-09-30T04:20:26.776Z,8.91
2022-09-30T04:23:32.196Z,8.96
2022-09-30T04:26:40.904Z,8.92
2022-09-30T04:29:53.608Z,8.86
2022-09-30T04:33:01.023Z,8.87
2022-09-30T04:36:21.166Z,8.86
2022-09-30T04:39:28.463Z,8.83
2022-09-30T04:42:40.489Z,8.80
2022-09-30T04:45:48.977Z,8.75
2022-09-30T04:49:08.518Z,8.75
2022-09-30T04:52:24.933Z,8.73
2022-09-30T04:55:37.565Z,8.73
2022-09-30T04:58:45.146Z,8.65
2022-09-30T05:01:59.987Z,8.59
2022-09-30T05:05:05.023Z,8.56
2022-09-30T05:08:23.725Z,8.61
2022-09-30T05:11:31.942Z,8.64
2022-09-30T05:14:37.498Z,8.65
2022-09-30T05:17:42.784Z,8.63
2022-09-30T05:20:55.715Z,8.60
2022-09-30T05:24:12.343Z,8.59
2022-09-30T05:27:24.347Z,8.59
2022-09-30T05:30:37.012Z,8.59
2022-09-30T05:33:54.561Z,8.59
2022-09-30T05:37:22.418Z,8.58
2022-09-30T05:44:03.705Z,8.56
2022-09-30T05:47:39.865Z,8.62
2022-09-30T05:51:49.964Z,8.65
2022-09-30T05:55:08.962Z,8.71
2022-09-30T05:58:20.533Z,8.80
2022-09-30T06:01:32.606Z,8.85
2022-09-30T06:04:39.178Z,8.93
2022-09-30T06:07:46.353Z,9.04
2022-09-30T06:10:55.050Z,9.22
2022-09-30T06:14:01.827Z,9.38
2022-09-30T06:17:15.130Z,9.54
2022-09-30T06:20:26.794Z,9.77
2022-09-30T06:23:36.205Z,9.98
2022-09-30T06:26:44.252Z,10.30
2022-09-30T06:29:54.959Z,10.71
2022-09-30T06:32:59.593Z,11.44
2022-09-30T06:36:06.155Z,12.06
2022-09-30T06:39:24.156Z,12.45
2022-09-30T06:42:33.306Z,12.79
2022-09-30T06:46:15.016Z,13.38
2022-09-30T06:49:45.666Z,14.72
2022-09-30T06:53:01.959Z,15.52
2022-09-30T06:56:30.373Z,16.34
2022-09-30T07:03:11.546Z,15.97
2022-09-30T07:09:59.606Z,14.13
2022-09-30T07:13:14.265Z,13.44
2022-09-30T07:16:40.087Z,12.98
2022-09-30T07:19:51.869Z,12.51
2022-09-30T07:23:02.395Z,12.17
2022-09-30T07:26:15.968Z,11.87
2022-09-30T07:30:13.328Z,11.63
2022-09-30T07:33:34.988Z,11.47
2022-09-30T07:36:48.630Z,11.44
2022-09-30T07:40:34.973Z,11.38
2022-09-30T07:43:57.270Z,11.44
2022-09-30T07:47:17.042Z,11.33
2022-09-30T07:50:38.083Z,11.26
2022-09-30T07:53:56.368Z,11.15
2022-09-30T07:57:21.750Z,11.14
2022-09-30T08:00:42.412Z,11.22
2022-09-30T08:04:43.962Z,11.04
2022-09-30T08:08:15.899Z,10.99
2022-09-30T08:11:47.008Z,10.99
2022-09-30T08:15:35.863Z,10.99
2022-09-30T08:18:54.507Z,10.99
2022-09-30T08:22:41.852Z,11.10
2022-09-30T08:26:04.596Z,11.15
2022-09-30T08:44:54.099Z,11.98
2022-09-30T08:52:15.948Z,12.34
2022-09-30T08:55:57.852Z,12.53
2022-09-30T08:59:12.050Z,12.70
2022-09-30T09:02:40.702Z,13.03
2022-09-30T09:06:07.972Z,13.44
2022-09-30T09:09:45.806Z,13.76
2022-09-30T09:13:10.763Z,13.95
2022-09-30T09:16:52.303Z,14.18
2022-09-30T09:23:56.822Z,14.44
2022-09-30T09:27:25.691Z,14.43
2022-09-30T09:30:47.773Z,14.44
2022-09-30T09:37:56.179Z,14.69
2022-09-30T09:41:23.227Z,14.91
2022-09-30T09:44:34.242Z,15.19
2022-09-30T09:47:47.970Z,15.42
2022-09-30T09:51:10.596Z,15.48
2022-09-30T09:54:36.068Z,15.52
2022-09-30T09:57:48.181Z,15.61
2022-09-30T10:01:33.702Z,15.72
2022-09-30T10:05:00.688Z,15.83
2022-09-30T10:08:14.648Z,15.89
2022-09-30T10:11:28.717Z,15.87
2022-09-30T10:14:35.663Z,16.02
2022-09-30T10:17:44.387Z,16.01
2022-09-30T10:21:00.561Z,16.09
2022-09-30T10:24:23.223Z,16.19
2022-09-30T10:27:38.209Z,16.26
2022-09-30T10:30:48.997Z,16.27
2022-09-30T10:34:05.231Z,16.33
2022-09-30T10:37:18.381Z,16.35
2022-09-30T10:40:29.076Z,16.41
2022-09-30T10:43:44.372Z,16.43
2022-09-30T10:47:00.683Z,16.45
2022-09-30T10:50:10.080Z,16.39
2022-09-30T10:53:24.398Z,16.47
2022-09-30T10:56:52.951Z,16.38
2022-09-30T11:00:02.821Z,16.40
2022-09-30T11:03:17.571Z,16.41
2022-09-30T11:06:26.527Z,16.57
2022-09-30T11:09:41.035Z,16.53
2022-09-30T11:12:52.682Z,16.55
2022-09-30T11:16:06.608Z,16.62
2022-09-30T11:19:21.872Z,16.58
2022-09-30T11:22:38.592Z,16.54
2022-09-30T11:25:53.524Z,16.59
2022-09-30T11:29:16.390Z,16.60
2022-09-30T11:32:43.878Z,16.54
2022-09-30T11:35:57.808Z,16.62
2022-09-30T11:39:28.088Z,16.71
2022-09-30T11:42:47.087Z,16.73
2022-09-30T11:46:11.488Z,16.78
2022-09-30T11:49:55.159Z,16.79
2022-09-30T11:53:15.964Z,17.00
2022-09-30T11:56:34.516Z,17.19
2022-09-30T11:59:48.081Z,17.41
2022-09-30T12:02:59.995Z,17.58
2022-09-30T12:06:13.803Z,17.61
2022-09-30T12:09:25.799Z,17.77
2022-09-30T12:12:33.848Z,17.87
2022-09-30T12:15:50.831Z,17.91
2022-09-30T12:19:01.105Z,17.96
2022-09-30T12:22:13.834Z,18.10
2022-09-30T12:25:23.873Z,18.16
2022-09-30T12:28:53.187Z,17.89
2022-09-30T12:32:44.171Z,17.47
2022-09-30T12:36:37.258Z,17.67
2022-09-30T12:40:27.650Z,18.01
2022-09-30T12:44:15.546Z,18.18
2022-09-30T12:47:51.010Z,18.49
2022-09-30T12:51:20.512Z,18.67
2022-09-30T12:55:13.876Z,18.30
2022-09-30T12:59:07.728Z,17.76
2022-09-30T13:02:34.019Z,17.36
2022-09-30T13:06:21.075Z,17.11
2022-09-30T13:09:47.407Z,17.01
2022-09-30T13:13:26.340Z,17.13
2022-09-30T13:17:10.699Z,17.19
2022-09-30T13:20:50.778Z,17.27
2022-09-30T13:24:26.668Z,17.17
2022-09-30T13:31:17.265Z,16.98
2022-09-30T13:34:27.585Z,16.94
2022-09-30T13:37:45.833Z,16.81
2022-09-30T13:41:02.333Z,16.72
2022-09-30T13:44:17.961Z,16.66
2022-09-30T13:47:32.621Z,16.59
2022-09-30T13:50:47.233Z,16.51
2022-09-30T13:53:59.303Z,16.46
2022-09-30T13:57:10.702Z,16.44
2022-09-30T14:00:22.228Z,16.36
2022-09-30T14:03:48.949Z,16.30
2022-09-30T14:07:08.282Z,16.23
2022-09-30T14:10:38.048Z,16.16
2022-09-30T14:13:58.959Z,16.17
2022-09-30T14:17:26.784Z,16.15
2022-09-30T14:20:54.864Z,16.07
2022-09-30T14:24:04.819Z,16.03
2022-09-30T14:27:26.787Z,16.01
2022-09-30T14:30:45.273Z,15.99
2022-09-30T14:33:54.283Z,16.02
2022-09-30T14:37:03.103Z,16.01
2022-09-30T14:40:14.260Z,16.02
2022-09-30T14:43:21.382Z,16.02
2022-09-30T14:46:35.608Z,16.05
2022-09-30T14:49:40.287Z,16.08
2022-09-30T14:52:49.206Z,16.08
2022-09-30T14:55:56.333Z,16.13
2022-09-30T14:59:02.643Z,16.17
2022-09-30T15:02:18.357Z,16.23
2022-09-30T15:05:21.388Z,16.20
2022-09-30T15:08:25.036Z,16.18
2022-09-30T15:11:28.191Z,16.16
2022-09-30T15:14:32.406Z,16.12
2022-09-30T15:17:39.419Z,16.04
2022-09-30T15:20:43.539Z,15.94
2022-09-30T15:23:49.476Z,15.85
2022-09-30T15:26:55.571Z,15.83
2022-09-30T15:29:59.783Z,15.83
2022-09-30T15:33:06.263Z,15.86
2022-09-30T15:36:17.058Z,15.79
2022-09-30T15:39:23.738Z,15.73
2022-09-30T15:42:35.403Z,15.70
2022-09-30T15:45:44.016Z,15.69
2022-09-30T15:48:49.734Z,15.64
2022-09-30T15:51:52.492Z,15.58
2022-09-30T15:54:56.453Z,15.52
2022-09-30T15:58:00.857Z,15.52
2022-09-30T16:01:16.952Z,15.41
2022-09-30T16:04:26.610Z,15.35
2022-09-30T16:07:34.140Z,15.25
2022-09-30T16:10:39.698Z,15.15
2022-09-30T16:13:45.868Z,15.00
2022-09-30T16:16:51.842Z,14.89
2022-09-30T16:19:59.604Z,14.78
2022-09-30T16:23:02.680Z,14.63
2022-09-30T16:26:30.857Z,14.48
2022-09-30T16:29:34.768Z,14.35
2022-09-30T16:32:44.471Z,14.16
2022-09-30T16:35:48.857Z,14.05
2022-09-30T16:38:51.611Z,13.95
2022-09-30T16:41:54.617Z,13.83
2022-09-30T16:44:57.353Z,13.71
2022-09-30T16:48:01.778Z,13.55
2022-09-30T16:51:08.298Z,13.38
2022-09-30T16:54:11.374Z,13.24
2022-09-30T16:57:16.433Z,13.18
2022-09-30T17:00:19.331Z,13.05
2022-09-30T17:03:22.561Z,12.97
2022-09-30T17:06:30.490Z,12.86
2022-09-30T17:09:33.572Z,12.80
2022-09-30T17:12:36.472Z,12.67
2022-09-30T17:15:39.177Z,12.57
2022-09-30T17:18:41.903Z,12.44
2022-09-30T17:21:46.050Z,12.39
2022-09-30T17:24:48.769Z,12.33
2022-09-30T17:27:51.695Z,12.32
2022-09-30T17:30:54.815Z,12.22
2022-09-30T17:33:57.607Z,12.08
2022-09-30T17:37:01.798Z,11.96
2022-09-30T17:40:25.729Z,11.87
2022-09-30T17:43:27.448Z,11.78
2022-09-30T17:46:41.528Z,11.70
2022-09-30T17:49:44.536Z,11.67
2022-09-30T17:52:48.804Z,11.58
2022-09-30T17:56:03.920Z,11.50
2022-09-30T17:59:07.062Z,11.47
2022-09-30T18:02:10.882Z,11.45
2022-09-30T18:05:14.504Z,11.38
2022-09-30T18:08:19.256Z,11.30
2022-09-30T18:11:22.999Z,11.27
2022-09-30T18:14:26.640Z,11.19
2022-09-30T18:17:29.477Z,11.13
2022-09-30T18:20:32.212Z,11.11
2022-09-30T18:23:36.960Z,11.05
2022-09-30T18:26:39.682Z,10.99
2022-09-30T18:29:42.503Z,10.94
2022-09-30T18:32:48.121Z,10.87
2022-09-30T18:35:51.456Z,10.81
2022-09-30T18:38:58.297Z,10.80
2022-09-30T18:42:01.482Z,10.78
2022-09-30T18:45:04.864Z,10.74
2022-09-30T18:48:08.414Z,10.78
2022-09-30T18:51:11.111Z,10.80
2022-09-30T18:54:15.955Z,10.74
2022-09-30T18:57:18.697Z,10.69
2022-09-30T19:00:21.703Z,10.59
2022-09-30T19:03:24.511Z,10.61
2022-09-30T19:06:30.232Z,10.56
2022-09-30T19:09:34.583Z,10.54
2022-09-30T19:12:38.863Z,10.49
2022-09-30T19:15:41.999Z,10.49
2022-09-30T19:18:45.380Z,10.47
2022-09-30T19:21:49.898Z,10.48
2022-09-30T19:24:54.148Z,10.45
2022-09-30T19:27:57.207Z,10.43
2022-09-30T19:31:05.217Z,10.39
2022-09-30T19:34:09.187Z,10.37
2022-09-30T19:37:22.990Z,10.26
2022-09-30T19:43:40.809Z,10.23
2022-09-30T19:46:43.805Z,10.17
2022-09-30T19:49:46.500Z,10.21
2022-09-30T19:52:56.860Z,10.17
2022-09-30T19:56:03.366Z,10.07
2022-09-30T19:59:08.806Z,10.07
2022-09-30T20:02:12.407Z,10.02
2022-09-30T20:05:15.439Z,9.96
2022-09-30T20:08:19.491Z,9.90
2022-09-30T20:11:25.146Z,9.97
2022-09-30T20:14:45.355Z,10.04
2022-09-30T20:17:48.442Z,9.97
2022-09-30T20:20:51.135Z,9.93
2022-09-30T20:23:54.659Z,9.87
2022-09-30T20:26:59.267Z,9.85
2022-09-30T20:30:02.190Z,9.87
2022-09-30T20:33:05.483Z,9.79
2022-09-30T20:36:10.798Z,9.81
2022-09-30T20:39:13.680Z,9.66
2022-09-30T20:42:17.824Z,9.58
2022-09-30T20:45:20.584Z,9.60
2022-09-30T20:48:23.515Z,9.64
2022-09-30T20:51:27.674Z,9.63
2022-09-30T20:54:32.479Z,9.57
2022-09-30T20:57:36.814Z,9.47
2022-09-30T21:00:43.011Z,9.37
2022-09-30T21:03:50.161Z,9.30
2022-09-30T21:06:52.901Z,9.32
2022-09-30T21:09:56.078Z,9.40
2022-09-30T21:13:01.311Z,9.39
2022-09-30T21:16:06.706Z,9.33
2022-09-30T21:19:10.312Z,9.39
2022-09-30T21:22:13.120Z,9.31
2022-09-30T21:25:19.137Z,9.31
2022-09-30T21:28:23.420Z,9.29
2022-09-30T21:31:28.094Z,9.30
2022-09-30T21:34:31.261Z,9.22
2022-09-30T21:37:34.642Z,9.20
2022-09-30T21:40:38.486Z,9.19
2022-09-30T21:43:43.835Z,9.22
2022-09-30T21:46:48.809Z,9.13
2022-09-30T21:49:53.672Z,9.12
2022-09-30T21:52:58.690Z,9.09
2022-09-30T21:56:03.375Z,9.02
2022-09-30T21:59:07.719Z,9.00
2022-09-30T22:02:10.777Z,9.05
2022-09-30T22:05:20.620Z,9.03
2022-09-30T22:08:23.614Z,9.01
2022-09-30T22:11:26.563Z,8.99
2022-09-30T22:14:30.755Z,9.02
2022-09-30T22:17:33.528Z,9.04
2022-09-30T22:20:36.326Z,9.03
2022-09-30T22:23:39.140Z,9.00
2022-09-30T22:26:43.314Z,9.06
2022-09-30T22:29:48.147Z,9.02
2022-09-30T22:33:10.851Z,8.97
2022-09-30T22:36:30.975Z,8.94
2022-09-30T22:39:34.153Z,8.95
2022-09-30T22:42:37.154Z,8.95
2022-09-30T22:45:43.907Z,8.98
2022-09-30T22:48:48.111Z,8.97
2022-09-30T22:51:52.036Z,8.93
2022-09-30T22:54:57.276Z,8.91
2022-09-30T22:58:00.059Z,8.85
2022-09-30T23:01:04.931Z,8.80
2022-09-30T23:04:08.086Z,8.79
2022-09-30T23:07:11.494Z,8.78
2022-09-30T23:10:14.802Z,8.73
2022-09-30T23:13:19.962Z,8.71
2022-09-30T23:16:24.474Z,8.65
2022-09-30T23:19:27.490Z,8.63
2022-09-30T23:22:30.459Z,8.57
2022-09-30T23:25:33.872Z,8.52
2022-09-30T23:28:37.459Z,8.49
2022-09-30T23:31:42.107Z,8.47
2022-09-30T23:34:45.063Z,8.50
2022-09-30T23:37:51.487Z,8.45
2022-09-30T23:40:58.887Z,8.46
2022-09-30T23:44:02.215Z,8.47
2022-09-30T23:47:19.054Z,8.46
2022-09-30T23:50:21.808Z,8.42
2022-09-30T23:53:24.620Z,8.40
2022-09-30T23:56:27.459Z,8.39
2022-09-30T23:59:30.884Z,8.41
